sensor_id;sensor_type;location;lat;lon;timestamp;pressure;altitude;pressure_sealevel;temperature;humidity
19086;BME280;9675;51.538;6.728;2024-03-02T00:01:36;99730.06;;;9.49;86.39
19086;BME280;9675;51.538;6.728;2024-03-02T00:04:04;99729.19;;;9.48;85.82
19086;BME280;9675;51.538;6.728;2024-03-02T00:06:32;99724.06;;;9.48;86.74
19086;BME280;9675;51.538;6.728;2024-03-02T00:09:01;99721.53;;;9.50;87.00
19086;BME280;9675;51.538;6.728;2024-03-02T00:11:28;99712.06;;;9.47;87.02
19086;BME280;9675;51.538;6.728;2024-03-02T00:13:55;99709.34;;;9.44;87.07
19086;BME280;9675;51.538;6.728;2024-03-02T00:16:22;99699.06;;;9.44;87.80
19086;BME280;9675;51.538;6.728;2024-03-02T00:18:50;99699.88;;;9.43;87.72
19086;BME280;9675;51.538;6.728;2024-03-02T00:21:18;99689.50;;;9.40;88.53
19086;BME280;9675;51.538;6.728;2024-03-02T00:23:48;99692.09;;;9.40;88.69
19086;BME280;9675;51.538;6.728;2024-03-02T00:26:19;99678.31;;;9.38;88.60
19086;BME280;9675;51.538;6.728;2024-03-02T00:28:46;99677.50;;;9.39;89.22
19086;BME280;9675;51.538;6.728;2024-03-02T00:31:20;99681.75;;;9.38;89.88
19086;BME280;9675;51.538;6.728;2024-03-02T00:33:48;99678.31;;;9.38;90.36
19086;BME280;9675;51.538;6.728;2024-03-02T00:36:22;99688.47;;;9.35;91.30
19086;BME280;9675;51.538;6.728;2024-03-02T00:38:52;99686.72;;;9.34;90.66
19086;BME280;9675;51.538;6.728;2024-03-02T00:41:23;99684.22;;;9.35;90.41
19086;BME280;9675;51.538;6.728;2024-03-02T00:43:58;99680.84;;;9.36;90.70
19086;BME280;9675;51.538;6.728;2024-03-02T00:46:29;99687.66;;;9.36;91.31
19086;BME280;9675;51.538;6.728;2024-03-02T00:48:58;99679.03;;;9.34;91.39
19086;BME280;9675;51.538;6.728;2024-03-02T00:51:29;99689.25;;;9.32;91.82
19086;BME280;9675;51.538;6.728;2024-03-02T00:54:00;99687.53;;;9.33;92.38
19086;BME280;9675;51.538;6.728;2024-03-02T00:56:32;99695.25;;;9.33;92.60
19086;BME280;9675;51.538;6.728;2024-03-02T00:59:00;99676.41;;;9.32;92.84
19086;BME280;9675;51.538;6.728;2024-03-02T01:01:27;99679.03;;;9.34;92.68
19086;BME280;9675;51.538;6.728;2024-03-02T01:03:55;99679.84;;;9.33;93.04
19086;BME280;9675;51.538;6.728;2024-03-02T01:06:22;99684.16;;;9.34;92.50
19086;BME280;9675;51.538;6.728;2024-03-02T01:08:49;99688.41;;;9.33;92.77
19086;BME280;9675;51.538;6.728;2024-03-02T01:11:17;99684.97;;;9.33;92.34
19086;BME280;9675;51.538;6.728;2024-03-02T01:13:46;99687.53;;;9.33;92.87
19086;BME280;9675;51.538;6.728;2024-03-02T01:16:13;99693.53;;;9.32;93.34
19086;BME280;9675;51.538;6.728;2024-03-02T01:18:41;99685.75;;;9.30;93.01
19086;BME280;9675;51.538;6.728;2024-03-02T01:21:08;99689.19;;;9.31;93.04
19086;BME280;9675;51.538;6.728;2024-03-02T01:23:36;99687.50;;;9.31;93.21
19086;BME280;9675;51.538;6.728;2024-03-02T01:26:03;99689.28;;;9.34;93.03
19086;BME280;9675;51.538;6.728;2024-03-02T01:28:34;99694.44;;;9.34;93.75
19086;BME280;9675;51.538;6.728;2024-03-02T01:31:03;99683.25;;;9.32;93.98
19086;BME280;9675;51.538;6.728;2024-03-02T01:33:30;99682.41;;;9.33;93.89
19086;BME280;9675;51.538;6.728;2024-03-02T01:35:57;99684.94;;;9.31;94.27
19086;BME280;9675;51.538;6.728;2024-03-02T01:38:24;99686.63;;;9.31;94.45
19086;BME280;9675;51.538;6.728;2024-03-02T01:40:51;99683.25;;;9.32;94.33
19086;BME280;9675;51.538;6.728;2024-03-02T01:43:18;99690.06;;;9.31;94.11
19086;BME280;9675;51.538;6.728;2024-03-02T01:45:45;99669.53;;;9.31;93.97
19086;BME280;9675;51.538;6.728;2024-03-02T01:48:14;99673.78;;;9.31;94.72
19086;BME280;9675;51.538;6.728;2024-03-02T01:50:41;99683.25;;;9.32;94.75
19086;BME280;9675;51.538;6.728;2024-03-02T01:53:09;99690.00;;;9.30;94.08
19086;BME280;9675;51.538;6.728;2024-03-02T01:55:36;99686.63;;;9.31;93.87
19086;BME280;9675;51.538;6.728;2024-03-02T01:58:04;99684.06;;;9.31;93.61
19086;BME280;9675;51.538;6.728;2024-03-02T02:00:31;99675.53;;;9.32;93.93
19086;BME280;9675;51.538;6.728;2024-03-02T02:02:58;99684.97;;;9.33;93.79
19086;BME280;9675;51.538;6.728;2024-03-02T02:05:27;99677.25;;;9.33;93.61
19086;BME280;9675;51.538;6.728;2024-03-02T02:07:54;99678.13;;;9.33;94.01
19086;BME280;9675;51.538;6.728;2024-03-02T02:10:21;99670.41;;;9.32;94.11
19086;BME280;9675;51.538;6.728;2024-03-02T02:12:48;99680.69;;;9.32;94.07
19086;BME280;9675;51.538;6.728;2024-03-02T02:15:25;99675.53;;;9.32;93.87
19086;BME280;9675;51.538;6.728;2024-03-02T02:17:53;99672.91;;;9.30;94.14
19086;BME280;9675;51.538;6.728;2024-03-02T02:20:20;99679.03;;;9.34;94.40
19086;BME280;9675;51.538;6.728;2024-03-02T02:22:59;99673.88;;;9.34;93.74
19086;BME280;9675;51.538;6.728;2024-03-02T02:25:27;99685.91;;;9.35;93.00
19086;BME280;9675;51.538;6.728;2024-03-02T02:27:55;99679.91;;;9.34;93.30
19086;BME280;9675;51.538;6.728;2024-03-02T02:30:24;99675.69;;;9.36;93.07
19086;BME280;9675;51.538;6.728;2024-03-02T02:32:52;99669.56;;;9.33;94.03
19086;BME280;9675;51.538;6.728;2024-03-02T02:35:19;99673.88;;;9.34;93.41
19086;BME280;9675;51.538;6.728;2024-03-02T02:37:48;99677.25;;;9.33;92.86
19086;BME280;9675;51.538;6.728;2024-03-02T02:40:18;99679.91;;;9.34;92.81
19086;BME280;9675;51.538;6.728;2024-03-02T02:42:45;99674.81;;;9.36;92.95
19086;BME280;9675;51.538;6.728;2024-03-02T02:45:12;99679.09;;;9.35;92.52
19086;BME280;9675;51.538;6.728;2024-03-02T02:47:40;99667.13;;;9.36;92.39
19086;BME280;9675;51.538;6.728;2024-03-02T02:50:09;99674.00;;;9.37;91.91
19086;BME280;9675;51.538;6.728;2024-03-02T02:52:39;99675.69;;;9.36;91.66
19086;BME280;9675;51.538;6.728;2024-03-02T02:55:08;99669.78;;;9.39;91.86
19086;BME280;9675;51.538;6.728;2024-03-02T02:57:39;99664.69;;;9.41;90.69
19086;BME280;9675;51.538;6.728;2024-03-02T03:00:09;99665.59;;;9.41;91.33
19086;BME280;9675;51.538;6.728;2024-03-02T03:02:40;99674.19;;;9.43;90.54
19086;BME280;9675;51.538;6.728;2024-03-02T03:05:09;99675.91;;;9.43;90.88
19086;BME280;9675;51.538;6.728;2024-03-02T03:07:37;99675.06;;;9.44;91.31
19086;BME280;9675;51.538;6.728;2024-03-02T03:10:07;99668.97;;;9.40;92.39
19086;BME280;9675;51.538;6.728;2024-03-02T03:12:34;99683.66;;;9.44;92.98
19086;BME280;9675;51.538;6.728;2024-03-02T03:15:04;99683.72;;;9.46;93.21
19086;BME280;9675;51.538;6.728;2024-03-02T03:17:32;99686.28;;;9.46;92.86
19086;BME280;9675;51.538;6.728;2024-03-02T03:19:59;99676.91;;;9.46;93.06
19086;BME280;9675;51.538;6.728;2024-03-02T03:22:28;99674.31;;;9.46;92.98
19086;BME280;9675;51.538;6.728;2024-03-02T03:24:55;99673.53;;;9.49;92.82
19086;BME280;9675;51.538;6.728;2024-03-02T03:27:22;99675.28;;;9.50;93.13
19086;BME280;9675;51.538;6.728;2024-03-02T03:29:49;99681.25;;;9.49;93.72
19086;BME280;9675;51.538;6.728;2024-03-02T03:32:17;99694.97;;;9.49;94.44
19086;BME280;9675;51.538;6.728;2024-03-02T03:34:44;99697.53;;;9.49;95.17
19086;BME280;9675;51.538;6.728;2024-03-02T03:37:13;99694.09;;;9.49;95.24
19086;BME280;9675;51.538;6.728;2024-03-02T03:39:41;99696.66;;;9.49;95.10
19086;BME280;9675;51.538;6.728;2024-03-02T03:42:08;99693.22;;;9.48;95.71
19086;BME280;9675;51.538;6.728;2024-03-02T03:44:35;99701.78;;;9.47;95.92
19086;BME280;9675;51.538;6.728;2024-03-02T03:47:02;99705.16;;;9.46;96.67
19086;BME280;9675;51.538;6.728;2024-03-02T03:49:30;99694.88;;;9.46;97.22
19086;BME280;9675;51.538;6.728;2024-03-02T03:51:57;99695.69;;;9.45;97.39
19086;BME280;9675;51.538;6.728;2024-03-02T03:54:24;99698.34;;;9.48;97.84
19086;BME280;9675;51.538;6.728;2024-03-02T03:56:51;99706.91;;;9.47;98.74
19086;BME280;9675;51.538;6.728;2024-03-02T03:59:18;99701.78;;;9.47;99.12
19086;BME280;9675;51.538;6.728;2024-03-02T04:01:45;99700.06;;;9.48;99.12
19086;BME280;9675;51.538;6.728;2024-03-02T04:04:12;99701.78;;;9.47;99.89
19086;BME280;9675;51.538;6.728;2024-03-02T04:06:41;99705.25;;;9.49;100.00
19086;BME280;9675;51.538;6.728;2024-03-02T04:09:08;99694.09;;;9.49;100.00
19086;BME280;9675;51.538;6.728;2024-03-02T04:11:35;99696.63;;;9.47;100.00
19086;BME280;9675;51.538;6.728;2024-03-02T04:14:02;99696.56;;;9.46;100.00
19086;BME280;9675;51.538;6.728;2024-03-02T04:16:29;99696.56;;;9.46;100.00
19086;BME280;9675;51.538;6.728;2024-03-02T04:18:56;99706.91;;;9.47;100.00
19086;BME280;9675;51.538;6.728;2024-03-02T04:21:23;99705.22;;;9.48;100.00
19086;BME280;9675;51.538;6.728;2024-03-02T04:23:51;99705.22;;;9.48;100.00
19086;BME280;9675;51.538;6.728;2024-03-02T04:26:23;99701.00;;;9.50;100.00
19086;BME280;9675;51.538;6.728;2024-03-02T04:28:51;99699.22;;;9.49;100.00
19086;BME280;9675;51.538;6.728;2024-03-02T04:31:18;99690.63;;;9.47;100.00
19086;BME280;9675;51.538;6.728;2024-03-02T04:33:45;99696.56;;;9.46;100.00
19086;BME280;9675;51.538;6.728;2024-03-02T04:36:12;99703.34;;;9.44;100.00
19086;BME280;9675;51.538;6.728;2024-03-02T04:38:39;99709.34;;;9.44;100.00
19086;BME280;9675;51.538;6.728;2024-03-02T04:41:08;99709.31;;;9.43;100.00
19086;BME280;9675;51.538;6.728;2024-03-02T04:43:35;99714.41;;;9.41;100.00
19086;BME280;9675;51.538;6.728;2024-03-02T04:46:02;99708.31;;;9.39;100.00
19086;BME280;9675;51.538;6.728;2024-03-02T04:48:29;99716.00;;;9.37;100.00
19086;BME280;9675;51.538;6.728;2024-03-02T04:50:56;99713.34;;;9.36;100.00
19086;BME280;9675;51.538;6.728;2024-03-02T04:53:23;99718.38;;;9.33;100.00
19086;BME280;9675;51.538;6.728;2024-03-02T04:55:51;99725.25;;;9.34;100.00
19086;BME280;9675;51.538;6.728;2024-03-02T04:58:37;99722.66;;;9.32;100.00
19086;BME280;9675;51.538;6.728;2024-03-02T05:01:04;99720.91;;;9.31;100.00
19086;BME280;9675;51.538;6.728;2024-03-02T05:03:31;99716.63;;;9.32;100.00
19086;BME280;9675;51.538;6.728;2024-03-02T05:06:00;99714.88;;;9.31;100.00
19086;BME280;9675;51.538;6.728;2024-03-02T05:08:27;99722.66;;;9.32;100.00
19086;BME280;9675;51.538;6.728;2024-03-02T05:10:54;99719.25;;;9.33;100.00
19086;BME280;9675;51.538;6.728;2024-03-02T05:13:43;99723.50;;;9.33;100.00
19086;BME280;9675;51.538;6.728;2024-03-02T05:16:09;99733.69;;;9.30;100.00
19086;BME280;9675;51.538;6.728;2024-03-02T05:18:37;99736.25;;;9.30;100.00
19086;BME280;9675;51.538;6.728;2024-03-02T05:21:04;99729.34;;;9.29;100.00
19086;BME280;9675;51.538;6.728;2024-03-02T05:23:31;99720.75;;;9.27;100.00
19086;BME280;9675;51.538;6.728;2024-03-02T05:25:59;99726.56;;;9.23;100.00
19086;BME280;9675;51.538;6.728;2024-03-02T05:28:26;99734.22;;;9.21;100.00
19086;BME280;9675;51.538;6.728;2024-03-02T05:30:54;99722.94;;;9.18;100.00
19086;BME280;9675;51.538;6.728;2024-03-02T05:33:21;99730.66;;;9.18;100.00
19086;BME280;9675;51.538;6.728;2024-03-02T05:35:49;99735.75;;;9.16;100.00
19086;BME280;9675;51.538;6.728;2024-03-02T05:38:16;99739.94;;;9.14;100.00
19086;BME280;9675;51.538;6.728;2024-03-02T05:40:43;99741.56;;;9.12;100.00
19086;BME280;9675;51.538;6.728;2024-03-02T05:43:10;99733.03;;;9.12;100.00
19086;BME280;9675;51.538;6.728;2024-03-02T05:45:37;99731.25;;;9.11;100.00
19086;BME280;9675;51.538;6.728;2024-03-02T05:48:07;99728.56;;;9.08;100.00
19086;BME280;9675;51.538;6.728;2024-03-02T05:50:34;99731.91;;;9.05;100.00
19086;BME280;9675;51.538;6.728;2024-03-02T05:53:02;99725.75;;;9.02;100.00
19086;BME280;9675;51.538;6.728;2024-03-02T05:55:29;99729.97;;;9.00;100.00
19086;BME280;9675;51.538;6.728;2024-03-02T05:57:56;99744.50;;;8.99;100.00
19086;BME280;9675;51.538;6.728;2024-03-02T06:00:41;99737.56;;;8.96;100.00
19086;BME280;9675;51.538;6.728;2024-03-02T06:03:09;99739.28;;;8.96;100.00
19086;BME280;9675;51.538;6.728;2024-03-02T06:05:36;99743.34;;;8.91;100.00
19086;BME280;9675;51.538;6.728;2024-03-02T06:08:04;99749.34;;;8.91;100.00
19086;BME280;9675;51.538;6.728;2024-03-02T06:10:31;99747.63;;;8.90;100.00
19086;BME280;9675;51.538;6.728;2024-03-02T06:12:58;99751.72;;;8.87;100.00
19086;BME280;9675;51.538;6.728;2024-03-02T06:15:25;99753.31;;;8.83;100.00
19086;BME280;9675;51.538;6.728;2024-03-02T06:17:52;99750.81;;;8.85;100.00
19086;BME280;9675;51.538;6.728;2024-03-02T06:20:21;99757.56;;;8.83;100.00
19086;BME280;9675;51.538;6.728;2024-03-02T06:22:48;99761.81;;;8.82;100.00
19086;BME280;9675;51.538;6.728;2024-03-02T06:25:15;99767.78;;;8.81;100.00
19086;BME280;9675;51.538;6.728;2024-03-02T06:27:42;99762.63;;;8.81;100.00
19086;BME280;9675;51.538;6.728;2024-03-02T06:30:12;99755.63;;;8.77;100.00
19086;BME280;9675;51.538;6.728;2024-03-02T06:32:39;99757.28;;;8.75;100.00
19086;BME280;9675;51.538;6.728;2024-03-02T06:35:07;99751.28;;;8.75;100.00
19086;BME280;9675;51.538;6.728;2024-03-02T06:37:38;99752.91;;;8.73;100.00
19086;BME280;9675;51.538;6.728;2024-03-02T06:40:07;99762.22;;;8.71;100.00
19086;BME280;9675;51.538;6.728;2024-03-02T06:42:34;99766.50;;;8.70;100.00
19086;BME280;9675;51.538;6.728;2024-03-02T06:45:02;99778.38;;;8.68;100.00
19086;BME280;9675;51.538;6.728;2024-03-02T06:47:30;99793.66;;;8.65;100.00
19086;BME280;9675;51.538;6.728;2024-03-02T06:49:57;99803.94;;;8.65;100.00
19086;BME280;9675;51.538;6.728;2024-03-02T06:52:24;99791.09;;;8.65;100.00
19086;BME280;9675;51.538;6.728;2024-03-02T06:54:53;99788.41;;;8.62;100.00
19086;BME280;9675;51.538;6.728;2024-03-02T06:57:20;99792.78;;;8.65;100.00
19086;BME280;9675;51.538;6.728;2024-03-02T06:59:47;99802.09;;;8.63;100.00
19086;BME280;9675;51.538;6.728;2024-03-02T07:02:16;99796.00;;;8.59;100.00
19086;BME280;9675;51.538;6.728;2024-03-02T07:04:44;99800.34;;;8.62;100.00
19086;BME280;9675;51.538;6.728;2024-03-02T07:07:11;99794.41;;;8.63;100.00
19086;BME280;9675;51.538;6.728;2024-03-02T07:09:38;99803.72;;;8.61;100.00
19086;BME280;9675;51.538;6.728;2024-03-02T07:12:07;99812.38;;;8.63;100.00
19086;BME280;9675;51.538;6.728;2024-03-02T07:14:35;99806.34;;;8.62;100.00
19086;BME280;9675;51.538;6.728;2024-03-02T07:17:25;99803.78;;;8.62;100.00
19086;BME280;9675;51.538;6.728;2024-03-02T07:19:52;99806.34;;;8.62;100.00
19086;BME280;9675;51.538;6.728;2024-03-02T07:22:19;99812.38;;;8.63;100.00
19086;BME280;9675;51.538;6.728;2024-03-02T07:24:47;99811.56;;;8.64;100.00
19086;BME280;9675;51.538;6.728;2024-03-02T07:27:17;99815.00;;;8.64;100.00
19086;BME280;9675;51.538;6.728;2024-03-02T07:29:44;99813.34;;;8.66;100.00
19086;BME280;9675;51.538;6.728;2024-03-02T07:32:11;99833.16;;;8.69;100.00
19086;BME280;9675;51.538;6.728;2024-03-02T07:34:38;99823.78;;;8.69;100.00
19086;BME280;9675;51.538;6.728;2024-03-02T07:37:06;99819.50;;;8.70;100.00
19086;BME280;9675;51.538;6.728;2024-03-02T07:39:33;99829.00;;;8.72;100.00
19086;BME280;9675;51.538;6.728;2024-03-02T07:42:00;99824.75;;;8.73;100.00
19086;BME280;9675;51.538;6.728;2024-03-02T07:44:29;99825.72;;;8.75;100.00
19086;BME280;9675;51.538;6.728;2024-03-02T07:46:56;99827.50;;;8.77;100.00
19086;BME280;9675;51.538;6.728;2024-03-02T07:49:23;99826.75;;;8.80;100.00
19086;BME280;9675;51.538;6.728;2024-03-02T07:51:50;99829.38;;;8.81;100.00
19086;BME280;9675;51.538;6.728;2024-03-02T07:54:17;99832.88;;;8.83;100.00
19086;BME280;9675;51.538;6.728;2024-03-02T07:56:45;99838.28;;;8.89;100.00
19086;BME280;9675;51.538;6.728;2024-03-02T07:59:12;99845.19;;;8.92;100.00
19086;BME280;9675;51.538;6.728;2024-03-02T08:01:41;99841.00;;;8.94;100.00
19086;BME280;9675;51.538;6.728;2024-03-02T08:04:08;99847.03;;;8.94;100.00
19086;BME280;9675;51.538;6.728;2024-03-02T08:06:36;99852.22;;;8.96;100.00
19086;BME280;9675;51.538;6.728;2024-03-02T08:09:03;99850.59;;;8.98;100.00
19086;BME280;9675;51.538;6.728;2024-03-02T08:11:35;99853.16;;;8.98;100.00
19086;BME280;9675;51.538;6.728;2024-03-02T08:14:03;99856.66;;;9.00;100.00
19086;BME280;9675;51.538;6.728;2024-03-02T08:16:30;99865.28;;;9.02;100.00
19086;BME280;9675;51.538;6.728;2024-03-02T08:19:00;99873.06;;;9.04;100.00
19086;BME280;9675;51.538;6.728;2024-03-02T08:21:27;99869.75;;;9.06;100.00
19086;BME280;9675;51.538;6.728;2024-03-02T08:23:56;99858.59;;;9.06;100.00
19086;BME280;9675;51.538;6.728;2024-03-02T08:26:24;99871.63;;;9.10;100.00
19086;BME280;9675;51.538;6.728;2024-03-02T08:28:51;99868.28;;;9.13;100.00
19086;BME280;9675;51.538;6.728;2024-03-02T08:31:18;99864.03;;;9.13;100.00
19086;BME280;9675;51.538;6.728;2024-03-02T08:33:45;99873.56;;;9.16;100.00
19086;BME280;9675;51.538;6.728;2024-03-02T08:36:14;99871.09;;;9.19;100.00
19086;BME280;9675;51.538;6.728;2024-03-02T08:38:44;99870.28;;;9.20;100.00
19086;BME280;9675;51.538;6.728;2024-03-02T08:41:11;99869.50;;;9.22;100.00
19086;BME280;9675;51.538;6.728;2024-03-02T08:43:41;99851.59;;;9.24;100.00
19086;BME280;9675;51.538;6.728;2024-03-02T08:46:09;99858.75;;;9.31;100.00
19086;BME280;9675;51.538;6.728;2024-03-02T08:48:36;99855.47;;;9.35;100.00
19086;BME280;9675;51.538;6.728;2024-03-02T08:51:03;99857.31;;;9.39;100.00
19086;BME280;9675;51.538;6.728;2024-03-02T08:53:34;99857.56;;;9.45;100.00
19086;BME280;9675;51.538;6.728;2024-03-02T08:56:02;99857.81;;;9.51;100.00
19086;BME280;9675;51.538;6.728;2024-03-02T08:58:31;99865.75;;;9.57;100.00
19086;BME280;9675;51.538;6.728;2024-03-02T09:00:58;99870.28;;;9.64;100.00
19086;BME280;9675;51.538;6.728;2024-03-02T09:03:26;99864.63;;;9.73;100.00
19086;BME280;9675;51.538;6.728;2024-03-02T09:05:53;99865.69;;;9.79;100.00
19086;BME280;9675;51.538;6.728;2024-03-02T09:08:20;99859.09;;;9.86;100.00
19086;BME280;9675;51.538;6.728;2024-03-02T09:10:49;99868.00;;;9.96;100.00
19086;BME280;9675;51.538;6.728;2024-03-02T09:13:16;99868.31;;;10.03;100.00
19086;BME280;9675;51.538;6.728;2024-03-02T09:15:43;99859.97;;;10.10;99.63
19086;BME280;9675;51.538;6.728;2024-03-02T09:18:11;99864.53;;;10.17;98.64
19086;BME280;9675;51.538;6.728;2024-03-02T09:20:38;99873.44;;;10.26;97.18
19086;BME280;9675;51.538;6.728;2024-03-02T09:23:05;99864.19;;;10.32;98.14
19086;BME280;9675;51.538;6.728;2024-03-02T09:25:32;99865.34;;;10.40;95.87
19086;BME280;9675;51.538;6.728;2024-03-02T09:28:00;99868.22;;;10.49;94.84
19086;BME280;9675;51.538;6.728;2024-03-02T09:30:28;99868.53;;;10.58;93.18
19086;BME280;9675;51.538;6.728;2024-03-02T09:32:55;99871.41;;;10.68;92.40
19086;BME280;9675;51.538;6.728;2024-03-02T09:35:22;99868.44;;;10.81;87.72
19086;BME280;9675;51.538;6.728;2024-03-02T09:37:49;99873.41;;;11.01;84.41
19086;BME280;9675;51.538;6.728;2024-03-02T09:40:17;99871.91;;;11.08;83.78
19086;BME280;9675;51.538;6.728;2024-03-02T09:42:45;99873.06;;;11.18;82.22
19086;BME280;9675;51.538;6.728;2024-03-02T09:45:24;99865.56;;;11.25;80.91
19086;BME280;9675;51.538;6.728;2024-03-02T09:47:51;99857.97;;;11.30;80.55
19086;BME280;9675;51.538;6.728;2024-03-02T09:50:18;99866.00;;;11.39;80.38
19086;BME280;9675;51.538;6.728;2024-03-02T09:52:48;99859.41;;;11.48;78.81
19086;BME280;9675;51.538;6.728;2024-03-02T09:55:16;99861.44;;;11.59;78.02
19086;BME280;9675;51.538;6.728;2024-03-02T09:57:45;99853.97;;;11.68;77.91
19086;BME280;9675;51.538;6.728;2024-03-02T10:00:15;99850.78;;;11.75;76.75
19086;BME280;9675;51.538;6.728;2024-03-02T10:02:44;99857.88;;;11.83;75.13
19086;BME280;9675;51.538;6.728;2024-03-02T10:05:24;99846.13;;;11.93;75.50
19086;BME280;9675;51.538;6.728;2024-03-02T10:07:59;99848.03;;;12.00;74.62
19086;BME280;9675;51.538;6.728;2024-03-02T10:10:35;99847.50;;;12.12;73.64
19086;BME280;9675;51.538;6.728;2024-03-02T10:13:07;99850.41;;;12.24;70.04
19086;BME280;9675;51.538;6.728;2024-03-02T10:15:36;99851.50;;;12.33;71.51
19086;BME280;9675;51.538;6.728;2024-03-02T10:18:08;99850.03;;;12.42;69.98
19086;BME280;9675;51.538;6.728;2024-03-02T10:20:37;99845.09;;;12.51;68.77
19086;BME280;9675;51.538;6.728;2024-03-02T10:23:12;99847.13;;;12.62;68.15
19086;BME280;9675;51.538;6.728;2024-03-02T10:25:43;99849.16;;;12.74;68.16
19086;BME280;9675;51.538;6.728;2024-03-02T10:28:15;99847.66;;;12.84;68.11
19086;BME280;9675;51.538;6.728;2024-03-02T10:30:51;99852.31;;;12.98;66.60
19086;BME280;9675;51.538;6.728;2024-03-02T10:33:19;99850.94;;;13.12;64.86
19086;BME280;9675;51.538;6.728;2024-03-02T10:35:48;99847.72;;;13.23;64.29
19086;BME280;9675;51.538;6.728;2024-03-02T10:38:17;99842.75;;;13.30;63.56
19086;BME280;9675;51.538;6.728;2024-03-02T10:40:47;99845.59;;;13.42;62.86
19086;BME280;9675;51.538;6.728;2024-03-02T10:43:15;99849.16;;;13.47;61.76
19086;BME280;9675;51.538;6.728;2024-03-02T10:45:46;99842.41;;;13.54;62.04
19086;BME280;9675;51.538;6.728;2024-03-02T10:48:16;99840.00;;;13.63;62.63
19086;BME280;9675;51.538;6.728;2024-03-02T10:50:45;99836.75;;;13.72;60.88
19086;BME280;9675;51.538;6.728;2024-03-02T10:53:12;99839.47;;;13.79;61.07
19086;BME280;9675;51.538;6.728;2024-03-02T10:55:40;99830.09;;;13.84;59.91
19086;BME280;9675;51.538;6.728;2024-03-02T10:58:12;99844.06;;;13.92;60.14
19086;BME280;9675;51.538;6.728;2024-03-02T11:00:43;99826.09;;;14.00;60.33
19086;BME280;9675;51.538;6.728;2024-03-02T11:03:14;99834.91;;;14.10;60.11
19086;BME280;9675;51.538;6.728;2024-03-02T11:05:47;99822.91;;;14.15;59.22
19086;BME280;9675;51.538;6.728;2024-03-02T11:08:18;99827.50;;;14.28;59.50
19086;BME280;9675;51.538;6.728;2024-03-02T11:10:51;99827.72;;;14.38;59.08
19086;BME280;9675;51.538;6.728;2024-03-02T11:13:27;99816.63;;;14.47;58.27
19086;BME280;9675;51.538;6.728;2024-03-02T11:16:05;99819.38;;;14.56;59.22
19086;BME280;9675;51.538;6.728;2024-03-02T11:18:34;99815.16;;;14.61;59.32
19086;BME280;9675;51.538;6.728;2024-03-02T11:21:04;99823.88;;;14.66;57.70
19086;BME280;9675;51.538;6.728;2024-03-02T11:23:35;99810.19;;;14.73;57.73
19086;BME280;9675;51.538;6.728;2024-03-02T11:26:18;99808.59;;;14.83;57.86
19086;BME280;9675;51.538;6.728;2024-03-02T11:28:45;99799.22;;;14.89;58.05
19086;BME280;9675;51.538;6.728;2024-03-02T11:31:13;99798.47;;;14.98;57.68
19086;BME280;9675;51.538;6.728;2024-03-02T11:33:40;99797.75;;;15.08;57.92
19086;BME280;9675;51.538;6.728;2024-03-02T11:36:10;99805.66;;;15.16;57.33
19086;BME280;9675;51.538;6.728;2024-03-02T11:38:37;99802.34;;;15.26;56.46
19086;BME280;9675;51.538;6.728;2024-03-02T11:41:07;99799.84;;;15.35;56.21
19086;BME280;9675;51.538;6.728;2024-03-02T11:43:38;99801.72;;;15.44;56.42
19086;BME280;9675;51.538;6.728;2024-03-02T11:46:07;99806.19;;;15.52;55.94
19086;BME280;9675;51.538;6.728;2024-03-02T11:48:35;99801.94;;;15.60;55.37
19086;BME280;9675;51.538;6.728;2024-03-02T11:51:04;99795.09;;;15.64;55.60
19086;BME280;9675;51.538;6.728;2024-03-02T11:53:35;99796.91;;;15.71;55.35
19086;BME280;9675;51.538;6.728;2024-03-02T11:56:06;99783.94;;;15.72;54.62
19086;BME280;9675;51.538;6.728;2024-03-02T11:58:37;99792.69;;;15.81;54.51
19086;BME280;9675;51.538;6.728;2024-03-02T12:01:07;99786.69;;;15.86;54.11
19086;BME280;9675;51.538;6.728;2024-03-02T12:03:34;99786.81;;;15.95;54.59
19086;BME280;9675;51.538;6.728;2024-03-02T12:06:03;99776.47;;;16.01;54.75
19086;BME280;9675;51.538;6.728;2024-03-02T12:08:33;99779.13;;;16.06;54.59
19086;BME280;9675;51.538;6.728;2024-03-02T12:11:01;99772.25;;;16.11;53.77
19086;BME280;9675;51.538;6.728;2024-03-02T12:13:29;99774.06;;;16.20;54.31
19086;BME280;9675;51.538;6.728;2024-03-02T12:15:56;99775.00;;;16.28;54.23
19086;BME280;9675;51.538;6.728;2024-03-02T12:18:24;99775.09;;;16.35;53.85
19086;BME280;9675;51.538;6.728;2024-03-02T12:20:52;99769.94;;;16.43;53.74
19086;BME280;9675;51.538;6.728;2024-03-02T12:23:23;99769.97;;;16.46;53.50
19086;BME280;9675;51.538;6.728;2024-03-02T12:25:52;99762.22;;;16.50;52.83
19086;BME280;9675;51.538;6.728;2024-03-02T12:28:19;99761.41;;;16.56;52.95
19086;BME280;9675;51.538;6.728;2024-03-02T12:30:47;99762.31;;;16.60;53.15
19086;BME280;9675;51.538;6.728;2024-03-02T12:33:16;99751.06;;;16.59;52.89
19086;BME280;9675;51.538;6.728;2024-03-02T12:35:44;99761.50;;;16.62;51.92
19086;BME280;9675;51.538;6.728;2024-03-02T12:38:11;99763.25;;;16.63;52.18
19086;BME280;9675;51.538;6.728;2024-03-02T12:40:39;99749.31;;;16.60;52.04
19086;BME280;9675;51.538;6.728;2024-03-02T12:43:07;99746.75;;;16.61;51.94
19086;BME280;9675;51.538;6.728;2024-03-02T12:45:35;99754.56;;;16.66;52.41
19086;BME280;9675;51.538;6.728;2024-03-02T12:48:04;99745.88;;;16.64;51.61
19086;BME280;9675;51.538;6.728;2024-03-02T12:50:33;99742.44;;;16.66;51.89
19086;BME280;9675;51.538;6.728;2024-03-02T12:53:00;99737.28;;;16.68;51.89
19086;BME280;9675;51.538;6.728;2024-03-02T12:55:27;99716.47;;;16.69;51.87
19086;BME280;9675;51.538;6.728;2024-03-02T12:57:54;99727.78;;;16.73;52.15
19086;BME280;9675;51.538;6.728;2024-03-02T13:00:24;99717.38;;;16.73;51.90
19086;BME280;9675;51.538;6.728;2024-03-02T13:02:51;99726.06;;;16.73;51.82
19086;BME280;9675;51.538;6.728;2024-03-02T13:05:19;99719.09;;;16.74;51.56
19086;BME280;9675;51.538;6.728;2024-03-02T13:07:47;99719.09;;;16.71;51.43
19086;BME280;9675;51.538;6.728;2024-03-02T13:10:15;99724.28;;;16.74;51.09
19086;BME280;9675;51.538;6.728;2024-03-02T13:12:42;99717.38;;;16.73;51.31
19086;BME280;9675;51.538;6.728;2024-03-02T13:15:10;99720.84;;;16.72;51.37
19086;BME280;9675;51.538;6.728;2024-03-02T13:17:39;99722.56;;;16.71;51.06
19086;BME280;9675;51.538;6.728;2024-03-02T13:20:07;99722.53;;;16.70;50.88
19086;BME280;9675;51.538;6.728;2024-03-02T13:22:36;99721.72;;;16.72;51.18